createdAt,value
2023-05-17T00:02:20.224Z,2.30
2023-05-17T00:04:47.425Z,2.17
2023-05-17T00:07:14.796Z,2.15
2023-05-17T00:09:42.115Z,2.67
2023-05-17T00:12:10.574Z,2.53
2023-05-17T00:14:37.843Z,2.88
2023-05-17T00:17:05.824Z,2.47
2023-05-17T00:19:33.009Z,3.42
2023-05-17T00:22:00.229Z,2.65
2023-05-17T00:24:27.455Z,3.55
2023-05-17T00:26:54.717Z,3.67
2023-05-17T00:29:21.896Z,3.40
2023-05-17T00:31:49.055Z,3.97
2023-05-17T00:34:16.253Z,2.88
2023-05-17T00:36:43.487Z,3.72
2023-05-17T00:39:10.826Z,3.63
2023-05-17T00:41:38.394Z,3.45
2023-05-17T00:44:05.717Z,3.90
2023-05-17T00:46:33.857Z,3.10
2023-05-17T00:49:01.154Z,3.63
2023-05-17T00:51:28.636Z,4.07
2023-05-17T00:53:55.939Z,4.18
2023-05-17T00:56:23.859Z,4.00
2023-05-17T00:58:51.320Z,4.20
2023-05-17T01:01:18.495Z,4.97
2023-05-17T01:03:46.451Z,4.07
2023-05-17T01:06:14.392Z,4.00
2023-05-17T01:08:42.538Z,4.82
2023-05-17T01:11:24.163Z,3.38
2023-05-17T01:14:02.770Z,3.90
2023-05-17T01:16:47.508Z,3.63
2023-05-17T01:19:37.028Z,3.95
2023-05-17T01:22:09.856Z,4.72
2023-05-17T01:24:53.554Z,4.32
2023-05-17T01:27:21.503Z,4.78
2023-05-17T01:29:49.678Z,4.38
2023-05-17T01:32:17.393Z,4.82
2023-05-17T01:34:44.926Z,3.92
2023-05-17T01:37:12.377Z,4.13
2023-05-17T01:39:40.430Z,4.05
2023-05-17T01:42:22.591Z,4.07
2023-05-17T01:45:12.787Z,4.32
2023-05-17T01:47:45.776Z,4.72
2023-05-17T01:50:15.288Z,4.72
2023-05-17T01:52:52.566Z,3.97
2023-05-17T01:55:27.110Z,4.50
2023-05-17T01:58:00.083Z,4.72
2023-05-17T02:00:31.239Z,5.20
2023-05-17T02:02:58.579Z,4.30
2023-05-17T02:05:26.205Z,5.18
2023-05-17T02:07:53.612Z,5.50
2023-05-17T02:10:20.853Z,4.63
2023-05-17T02:12:48.190Z,4.72
2023-05-17T02:15:18.623Z,4.32
2023-05-17T02:17:46.084Z,4.97
2023-05-17T02:20:13.682Z,4.00
2023-05-17T02:22:40.889Z,5.03
2023-05-17T02:25:08.667Z,5.00
2023-05-17T02:27:37.268Z,5.03
2023-05-17T02:30:05.436Z,5.90
2023-05-17T02:32:33.181Z,5.35
2023-05-17T02:35:00.703Z,5.13
2023-05-17T02:37:28.016Z,4.55
2023-05-17T02:39:55.521Z,5.57
2023-05-17T02:42:22.755Z,5.47
2023-05-17T02:44:52.928Z,5.63
2023-05-17T02:47:23.619Z,5.00
2023-05-17T02:49:51.051Z,5.60
2023-05-17T02:52:18.289Z,4.55
2023-05-17T02:54:45.574Z,4.45
2023-05-17T02:57:12.892Z,5.07
2023-05-17T02:59:40.112Z,5.95
2023-05-17T03:02:07.314Z,5.18
2023-05-17T03:04:34.693Z,5.50
2023-05-17T03:07:01.931Z,4.43
2023-05-17T03:09:30.213Z,4.90
2023-05-17T03:11:58.481Z,6.07
2023-05-17T03:14:25.721Z,5.00
2023-05-17T03:16:52.920Z,5.32
2023-05-17T03:19:20.411Z,5.35
2023-05-17T03:21:47.749Z,4.70
2023-05-17T03:24:14.946Z,5.97
2023-05-17T03:26:42.240Z,5.03
2023-05-17T03:29:09.522Z,4.47
2023-05-17T03:31:36.759Z,4.47
2023-05-17T03:34:04.007Z,4.97
2023-05-17T03:36:34.481Z,5.00
2023-05-17T03:39:01.741Z,5.25
2023-05-17T03:41:28.972Z,5.18
2023-05-17T03:43:56.210Z,5.28
2023-05-17T03:46:23.605Z,5.10
2023-05-17T03:48:51.261Z,5.43
2023-05-17T03:51:18.665Z,5.13
2023-05-17T03:53:45.914Z,5.45
2023-05-17T03:56:13.261Z,5.40
2023-05-17T03:58:40.457Z,4.88
2023-05-17T04:01:07.718Z,5.63
2023-05-17T04:03:35.050Z,4.63
2023-05-17T04:06:06.944Z,5.80
2023-05-17T04:08:35.052Z,5.22
2023-05-17T04:11:10.213Z,5.22
2023-05-17T04:13:37.673Z,6.00
2023-05-17T04:16:05.244Z,5.28
2023-05-17T04:18:36.034Z,5.68
2023-05-17T04:21:03.942Z,5.80
2023-05-17T04:23:32.580Z,6.88
2023-05-17T04:25:59.964Z,6.60
2023-05-17T04:28:27.434Z,6.05
2023-05-17T04:30:56.152Z,5.88
2023-05-17T04:33:24.374Z,5.63
2023-05-17T04:35:54.626Z,6.10
2023-05-17T04:38:22.031Z,6.18
2023-05-17T04:40:49.268Z,5.32
2023-05-17T04:43:16.694Z,6.30
2023-05-17T04:45:43.865Z,6.68
2023-05-17T04:48:11.560Z,5.90
2023-05-17T04:50:38.972Z,6.13
2023-05-17T04:53:06.213Z,5.97
2023-05-17T04:55:33.455Z,6.78
2023-05-17T04:58:00.722Z,6.38
2023-05-17T05:00:28.058Z,5.65
2023-05-17T05:03:00.336Z,5.30
2023-05-17T05:05:27.958Z,5.97
2023-05-17T05:07:56.177Z,5.75
2023-05-17T05:10:23.935Z,6.15
2023-05-17T05:12:51.339Z,6.07
2023-05-17T05:15:18.795Z,4.82
2023-05-17T05:17:46.348Z,5.55
2023-05-17T05:20:13.935Z,5.25
2023-05-17T05:22:41.255Z,4.20
2023-05-17T05:25:09.346Z,4.65
2023-05-17T05:27:36.789Z,5.90
2023-05-17T05:30:04.428Z,3.75
2023-05-17T05:32:31.884Z,5.28
2023-05-17T05:34:59.794Z,3.92
2023-05-17T05:37:27.288Z,4.93
2023-05-17T05:40:03.505Z,4.07
2023-05-17T05:42:31.215Z,3.95
2023-05-17T05:44:59.581Z,5.70
2023-05-17T05:47:26.814Z,4.45
2023-05-17T05:49:54.109Z,4.43
2023-05-17T05:52:21.634Z,5.93
2023-05-17T05:54:48.947Z,4.60
2023-05-17T05:57:16.100Z,4.07
2023-05-17T05:59:43.680Z,4.45
2023-05-17T06:02:13.736Z,4.65
2023-05-17T06:04:45.569Z,4.47
2023-05-17T06:07:14.949Z,4.50
2023-05-17T06:09:43.675Z,4.50
2023-05-17T06:12:11.000Z,4.70
2023-05-17T06:14:39.882Z,4.35
2023-05-17T06:17:07.490Z,3.88
2023-05-17T06:19:35.423Z,4.45
2023-05-17T06:22:03.356Z,4.63
2023-05-17T06:24:30.879Z,3.92
2023-05-17T06:26:58.589Z,3.83
2023-05-17T06:29:26.560Z,4.72
2023-05-17T06:31:56.475Z,3.53
2023-05-17T06:34:24.667Z,3.85
2023-05-17T06:36:52.568Z,3.65
2023-05-17T06:39:20.424Z,4.32
2023-05-17T06:41:48.270Z,3.58
2023-05-17T06:44:15.622Z,3.65
2023-05-17T06:46:43.463Z,4.55
2023-05-17T06:49:11.357Z,3.92
2023-05-17T06:51:38.664Z,4.00
2023-05-17T06:54:06.278Z,3.97
2023-05-17T06:56:36.476Z,4.13
2023-05-17T06:59:04.467Z,3.38
2023-05-17T07:01:32.068Z,3.13
2023-05-17T07:03:59.934Z,3.25
2023-05-17T07:06:28.329Z,3.20
2023-05-17T07:08:56.470Z,3.13
2023-05-17T07:11:24.172Z,2.95
2023-05-17T07:13:53.558Z,2.65
2023-05-17T07:16:22.172Z,3.13
2023-05-17T07:18:49.846Z,3.47
2023-05-17T07:21:18.118Z,2.80
2023-05-17T07:23:45.495Z,2.95
2023-05-17T07:26:13.516Z,2.80
2023-05-17T07:28:43.957Z,3.13
2023-05-17T07:31:11.617Z,3.95
2023-05-17T07:33:39.484Z,3.58
2023-05-17T07:36:07.264Z,3.20
2023-05-17T07:38:35.870Z,2.78
2023-05-17T07:41:04.413Z,3.15
2023-05-17T07:43:32.816Z,2.80
2023-05-17T07:46:24.293Z,4.05
2023-05-17T07:48:52.996Z,2.83
2023-05-17T07:52:11.296Z,3.25
2023-05-17T07:55:06.026Z,3.35
2023-05-17T07:57:33.478Z,3.47
2023-05-17T08:00:01.051Z,3.72
2023-05-17T08:02:28.634Z,2.95
2023-05-17T08:04:56.571Z,3.20
2023-05-17T08:07:24.692Z,3.20
2023-05-17T08:09:52.131Z,2.63
2023-05-17T08:12:21.443Z,3.15
2023-05-17T08:14:49.482Z,2.70
2023-05-17T08:17:17.227Z,2.83
2023-05-17T08:19:44.833Z,2.35
2023-05-17T08:22:12.299Z,2.78
2023-05-17T08:24:39.783Z,2.17
2023-05-17T08:27:07.212Z,2.95
2023-05-17T08:29:34.666Z,3.50
2023-05-17T08:32:02.358Z,2.22
2023-05-17T08:34:29.983Z,2.47
2023-05-17T08:36:58.150Z,3.17
2023-05-17T08:39:26.041Z,2.83
2023-05-17T08:41:54.526Z,3.22
2023-05-17T08:44:23.692Z,3.67
2023-05-17T08:46:53.869Z,3.50
2023-05-17T08:49:26.035Z,4.13
2023-05-17T08:51:54.519Z,2.70
2023-05-17T08:54:23.206Z,3.10
2023-05-17T08:56:54.660Z,2.85
2023-05-17T08:59:22.236Z,3.28
2023-05-17T09:01:51.450Z,3.17
2023-05-17T09:04:20.390Z,2.28
2023-05-17T09:06:47.760Z,2.97
2023-05-17T09:09:15.663Z,3.13
2023-05-17T09:11:43.014Z,3.17
2023-05-17T09:15:13.066Z,2.75
2023-05-17T09:17:41.334Z,2.60
2023-05-17T09:20:10.253Z,2.92
2023-05-17T09:22:38.445Z,3.45
2023-05-17T09:25:06.044Z,2.40
2023-05-17T09:27:33.334Z,3.28
2023-05-17T09:30:01.226Z,3.55
2023-05-17T09:32:28.599Z,3.00
2023-05-17T09:34:59.408Z,2.65
2023-05-17T09:37:26.755Z,2.70
2023-05-17T09:39:55.183Z,3.28
2023-05-17T09:42:26.298Z,2.80
2023-05-17T09:44:58.464Z,3.17
2023-05-17T09:47:30.024Z,3.08
2023-05-17T09:50:00.424Z,2.90
2023-05-17T09:52:31.835Z,3.38
2023-05-17T09:54:59.988Z,2.80
2023-05-17T09:57:28.808Z,2.95
2023-05-17T09:59:57.479Z,2.97
2023-05-17T10:02:29.113Z,2.72
2023-05-17T10:04:58.424Z,2.88
2023-05-17T10:07:27.330Z,2.95
2023-05-17T10:09:55.988Z,2.75
2023-05-17T10:12:25.711Z,2.42
2023-05-17T10:14:56.303Z,3.05
2023-05-17T10:17:24.613Z,3.22
2023-05-17T10:19:53.329Z,3.63
2023-05-17T10:22:23.752Z,2.78
2023-05-17T10:24:52.029Z,2.30
2023-05-17T10:27:20.909Z,2.88
2023-05-17T10:29:50.157Z,2.95
2023-05-17T10:32:21.535Z,2.35
2023-05-17T10:34:58.052Z,2.20
2023-05-17T10:37:33.948Z,2.47
2023-05-17T10:40:01.288Z,2.30
2023-05-17T10:42:28.929Z,2.67
2023-05-17T10:44:56.806Z,2.58
2023-05-17T10:47:32.062Z,2.60
2023-05-17T10:49:59.281Z,2.50
2023-05-17T10:52:27.400Z,2.45
2023-05-17T10:54:55.929Z,2.78
2023-05-17T10:57:49.805Z,2.42
2023-05-17T11:00:29.527Z,2.40
2023-05-17T11:03:15.345Z,2.03
2023-05-17T11:05:45.452Z,1.85
2023-05-17T11:08:17.407Z,2.38
2023-05-17T11:11:10.871Z,2.40
2023-05-17T11:13:46.180Z,3.28
2023-05-17T11:16:19.303Z,2.88
2023-05-17T11:18:51.155Z,2.45
2023-05-17T11:21:19.877Z,2.58
2023-05-17T11:23:48.612Z,2.00
2023-05-17T11:26:38.808Z,2.25
2023-05-17T11:29:11.563Z,2.05
2023-05-17T11:31:45.213Z,2.72
2023-05-17T11:34:13.001Z,2.30
2023-05-17T11:36:52.545Z,2.75
2023-05-17T11:39:27.550Z,2.42
2023-05-17T11:41:57.374Z,2.63
2023-05-17T11:44:35.112Z,2.58
2023-05-17T11:47:10.848Z,2.83
2023-05-17T11:49:39.772Z,2.40
2023-05-17T11:52:08.036Z,2.42
2023-05-17T11:54:39.090Z,2.70
2023-05-17T11:57:06.699Z,2.22
2023-05-17T11:59:40.844Z,2.38
2023-05-17T12:02:08.784Z,1.92
2023-05-17T12:04:37.875Z,2.38
2023-05-17T12:07:08.948Z,2.47
2023-05-17T12:09:37.406Z,2.60
2023-05-17T12:12:58.595Z,2.55
2023-05-17T12:15:26.296Z,2.00
2023-05-17T12:17:54.476Z,2.40
2023-05-17T12:20:56.797Z,2.58
2023-05-17T12:23:30.163Z,1.98
2023-05-17T12:26:09.675Z,3.22
2023-05-17T12:28:43.335Z,2.80
2023-05-17T12:31:21.777Z,2.55
2023-05-17T12:33:50.702Z,2.72
2023-05-17T12:36:18.310Z,1.92
2023-05-17T12:38:47.140Z,2.10
2023-05-17T12:41:16.595Z,2.55
2023-05-17T12:43:45.232Z,2.30
2023-05-17T12:46:18.921Z,2.38
2023-05-17T12:48:47.416Z,1.90
2023-05-17T12:51:16.435Z,1.90
2023-05-17T12:53:48.599Z,2.53
2023-05-17T12:56:28.328Z,1.90
2023-05-17T12:59:07.695Z,2.42
2023-05-17T13:01:36.526Z,2.40
2023-05-17T13:04:04.294Z,3.45
2023-05-17T13:06:51.631Z,2.17
2023-05-17T13:09:23.849Z,2.70
2023-05-17T13:11:55.458Z,2.13
2023-05-17T13:14:53.031Z,2.65
2023-05-17T13:17:35.930Z,2.65
2023-05-17T13:20:04.407Z,2.83
2023-05-17T13:22:33.218Z,2.75
2023-05-17T13:25:00.469Z,2.50
2023-05-17T13:27:28.170Z,2.92
2023-05-17T13:29:55.577Z,2.00
2023-05-17T13:32:24.982Z,1.92
2023-05-17T13:34:52.930Z,2.30
2023-05-17T13:37:22.183Z,2.40
2023-05-17T13:39:49.902Z,2.60
2023-05-17T13:42:17.502Z,2.80
2023-05-17T13:44:45.089Z,2.08
2023-05-17T13:47:14.796Z,2.67
2023-05-17T13:49:43.059Z,2.63
2023-05-17T13:52:12.656Z,2.65
2023-05-17T13:54:40.679Z,2.20
2023-05-17T13:57:08.356Z,3.15
2023-05-17T13:59:43.603Z,2.33
2023-05-17T14:02:12.372Z,2.17
2023-05-17T14:04:39.605Z,2.83
2023-05-17T14:07:14.916Z,2.35
2023-05-17T14:09:45.036Z,3.30
2023-05-17T14:12:12.288Z,2.25
2023-05-17T14:14:43.027Z,2.17
2023-05-17T14:17:11.351Z,2.17
2023-05-17T14:19:39.147Z,2.10
2023-05-17T14:22:06.482Z,2.25
2023-05-17T14:24:35.648Z,2.97
2023-05-17T14:27:05.246Z,2.63
2023-05-17T14:29:32.574Z,4.75
2023-05-17T14:31:59.803Z,2.72
2023-05-17T14:34:27.437Z,3.25
2023-05-17T14:36:55.220Z,2.97
2023-05-17T14:39:22.492Z,3.53
2023-05-17T14:41:49.818Z,2.63
2023-05-17T14:44:16.998Z,3.25
2023-05-17T14:46:44.416Z,3.85
2023-05-17T14:49:12.102Z,3.45
2023-05-17T14:51:39.658Z,3.40
2023-05-17T14:54:06.986Z,3.55
2023-05-17T14:56:36.978Z,4.68
2023-05-17T14:59:04.156Z,4.80
2023-05-17T15:01:31.733Z,4.68
2023-05-17T15:04:00.105Z,4.10
2023-05-17T15:06:28.840Z,4.13
2023-05-17T15:08:56.188Z,3.10
2023-05-17T15:11:23.742Z,3.13
2023-05-17T15:13:52.056Z,3.00
2023-05-17T15:16:19.604Z,2.83
2023-05-17T15:18:47.265Z,2.08
2023-05-17T15:21:14.742Z,2.70
2023-05-17T15:23:42.410Z,2.53
2023-05-17T15:26:09.650Z,2.60
2023-05-17T15:28:36.923Z,3.00
2023-05-17T15:31:10.611Z,2.67
2023-05-17T15:33:43.336Z,2.70
2023-05-17T15:36:13.145Z,3.00
2023-05-17T15:38:40.597Z,3.13
2023-05-17T15:41:10.976Z,3.72
2023-05-17T15:43:38.484Z,3.08
2023-05-17T15:46:05.737Z,3.25
2023-05-17T15:48:34.039Z,2.25
2023-05-17T15:51:01.599Z,3.20
2023-05-17T15:53:30.474Z,3.80
2023-05-17T15:55:57.720Z,2.92
2023-05-17T15:58:27.907Z,2.85
2023-05-17T16:00:55.359Z,2.88
2023-05-17T16:03:22.548Z,2.70
2023-05-17T16:10:09.416Z,2.85
2023-05-17T16:12:36.575Z,2.80
2023-05-17T16:15:03.992Z,3.15
2023-05-17T16:17:31.429Z,2.55
2023-05-17T16:19:58.858Z,3.03
2023-05-17T16:22:26.297Z,2.50
2023-05-17T16:24:57.082Z,3.13
2023-05-17T16:27:25.711Z,2.40
2023-05-17T16:29:52.914Z,2.17
2023-05-17T16:32:20.184Z,3.08
2023-05-17T16:34:47.378Z,2.72
2023-05-17T16:37:14.646Z,2.55
2023-05-17T16:39:41.887Z,2.92
2023-05-17T16:42:10.244Z,3.35
2023-05-17T16:44:37.513Z,2.33
2023-05-17T16:47:05.025Z,2.92
2023-05-17T16:49:32.318Z,2.30
2023-05-17T16:51:59.477Z,2.17
2023-05-17T16:54:28.914Z,2.72
2023-05-17T16:56:57.052Z,2.00
2023-05-17T16:59:24.446Z,2.42
2023-05-17T17:01:51.989Z,2.35
2023-05-17T17:04:19.433Z,2.95
2023-05-17T17:06:46.733Z,2.10
2023-05-17T17:09:14.202Z,2.55
2023-05-17T17:11:41.478Z,2.25
2023-05-17T17:14:09.009Z,3.00
2023-05-17T17:16:36.217Z,1.92
2023-05-17T17:19:03.803Z,1.90
2023-05-17T17:21:36.264Z,2.50
2023-05-17T17:24:06.789Z,2.67
2023-05-17T17:26:38.025Z,2.33
2023-05-17T17:29:05.592Z,1.92
2023-05-17T17:31:32.786Z,2.03
2023-05-17T17:34:00.127Z,3.03
2023-05-17T17:36:27.368Z,3.42
2023-05-17T17:38:54.603Z,2.28
2023-05-17T17:41:23.170Z,3.03
2023-05-17T17:43:50.407Z,2.50
2023-05-17T17:46:17.626Z,2.17
2023-05-17T17:48:45.128Z,2.20
2023-05-17T17:51:12.355Z,2.55
2023-05-17T17:53:41.333Z,2.75
2023-05-17T17:56:08.638Z,2.35
2023-05-17T17:58:36.576Z,2.28
2023-05-17T18:01:04.024Z,2.38
2023-05-17T18:03:32.305Z,2.40
2023-05-17T18:05:59.543Z,2.08
2023-05-17T18:08:26.919Z,2.40
2023-05-17T18:10:54.098Z,2.22
2023-05-17T18:13:21.343Z,3.00
2023-05-17T18:15:48.559Z,2.35
2023-05-17T18:18:16.592Z,2.83
2023-05-17T18:20:43.838Z,2.28
2023-05-17T18:23:11.086Z,2.40
2023-05-17T18:25:38.670Z,2.90
2023-05-17T18:28:08.081Z,2.00
2023-05-17T18:30:36.188Z,2.30
2023-05-17T18:37:27.745Z,2.20
2023-05-17T18:39:55.281Z,2.15
2023-05-17T18:42:24.906Z,2.25
2023-05-17T18:44:52.169Z,2.13
2023-05-17T18:47:19.722Z,2.13
2023-05-17T18:49:48.002Z,2.67
2023-05-17T18:52:15.341Z,1.95
2023-05-17T18:54:42.624Z,2.88
2023-05-17T18:57:11.937Z,2.95
2023-05-17T18:59:39.237Z,2.00
2023-05-17T19:02:06.588Z,2.33
2023-05-17T19:04:33.917Z,3.10
2023-05-17T19:07:01.295Z,2.60
2023-05-17T19:09:28.572Z,2.67
2023-05-17T19:11:57.869Z,2.63
2023-05-17T19:14:25.195Z,2.78
2023-05-17T19:16:56.663Z,2.58
2023-05-17T19:19:24.724Z,2.70
2023-05-17T19:21:52.036Z,2.53
2023-05-17T19:24:19.409Z,2.63
2023-05-17T19:26:46.683Z,3.17
2023-05-17T19:29:13.896Z,3.15
2023-05-17T19:31:41.236Z,2.42
2023-05-17T19:34:08.511Z,2.00
2023-05-17T19:36:35.787Z,2.42
2023-05-17T19:39:03.075Z,2.05
2023-05-17T19:41:30.499Z,2.60
2023-05-17T19:43:57.748Z,2.75
2023-05-17T19:46:25.081Z,2.40
2023-05-17T19:48:53.018Z,2.67
2023-05-17T19:51:20.275Z,2.80
2023-05-17T19:53:53.326Z,2.80
2023-05-17T19:56:24.094Z,2.42
2023-05-17T19:58:52.325Z,2.60
2023-05-17T20:01:21.562Z,2.00
2023-05-17T20:03:48.872Z,3.33
2023-05-17T20:06:16.415Z,2.28
2023-05-17T20:08:43.725Z,2.58
2023-05-17T20:11:11.112Z,2.47
2023-05-17T20:13:41.120Z,2.70
2023-05-17T20:16:12.704Z,2.58
2023-05-17T20:18:44.074Z,2.85
2023-05-17T20:21:15.049Z,2.28
2023-05-17T20:23:42.392Z,2.17
2023-05-17T20:26:16.256Z,2.45
2023-05-17T20:28:44.461Z,2.30
2023-05-17T20:31:12.189Z,2.50
2023-05-17T20:33:39.466Z,2.33
2023-05-17T20:36:06.741Z,2.45
2023-05-17T20:38:34.084Z,2.90
2023-05-17T20:41:01.539Z,2.17
2023-05-17T20:43:29.074Z,2.63
2023-05-17T20:45:56.497Z,2.65
2023-05-17T20:48:23.830Z,3.25
2023-05-17T20:50:51.273Z,2.42
2023-05-17T20:53:18.559Z,2.83
2023-05-17T20:55:45.765Z,2.65
2023-05-17T20:58:12.932Z,2.20
2023-05-17T21:00:41.335Z,2.53
2023-05-17T21:03:09.721Z,2.55
2023-05-17T21:05:38.465Z,3.20
2023-05-17T21:08:07.366Z,2.58
2023-05-17T21:10:36.141Z,3.03
2023-05-17T21:13:03.398Z,2.50
2023-05-17T21:15:30.856Z,3.03
2023-05-17T21:17:58.231Z,2.53
2023-05-17T21:20:28.313Z,3.15
2023-05-17T21:22:55.657Z,2.42
2023-05-17T21:25:22.889Z,3.17
2023-05-17T21:27:50.397Z,2.83
2023-05-17T21:30:17.660Z,3.40
2023-05-17T21:32:45.010Z,2.70
2023-05-17T21:35:12.293Z,3.55
2023-05-17T21:37:40.173Z,4.07
2023-05-17T21:40:09.760Z,3.38
2023-05-17T21:42:37.048Z,3.10
2023-05-17T21:45:08.574Z,3.42
2023-05-17T21:47:36.163Z,3.42
2023-05-17T21:50:04.487Z,3.28
2023-05-17T21:52:31.680Z,3.42
2023-05-17T21:54:58.884Z,3.33
2023-05-17T21:57:26.157Z,3.53
2023-05-17T21:59:53.316Z,3.80
2023-05-17T22:02:20.742Z,3.30
2023-05-17T22:04:48.003Z,3.75
2023-05-17T22:08:05.716Z,2.80
2023-05-17T22:27:54.906Z,2.38
2023-05-17T22:34:42.355Z,2.75
2023-05-17T22:37:12.805Z,2.45
2023-05-17T22:39:41.062Z,3.13
2023-05-17T22:46:21.491Z,2.20
2023-05-17T22:48:50.118Z,2.65
2023-05-17T22:51:18.596Z,2.80
2023-05-17T22:53:45.860Z,2.70
2023-05-17T22:56:13.020Z,1.83
2023-05-17T22:58:40.384Z,2.15
2023-05-17T23:01:07.643Z,2.17
2023-05-17T23:03:35.204Z,3.28
2023-05-17T23:06:03.358Z,2.03
2023-05-17T23:08:31.331Z,3.10
2023-05-17T23:10:58.896Z,2.15
2023-05-17T23:13:26.245Z,2.60
2023-05-17T23:15:53.916Z,2.40
2023-05-17T23:18:21.619Z,1.98
2023-05-17T23:20:49.137Z,1.90
2023-05-17T23:23:16.520Z,2.88
2023-05-17T23:25:48.329Z,2.75
2023-05-17T23:28:15.694Z,2.42
2023-05-17T23:30:44.498Z,2.80
2023-05-17T23:33:11.808Z,2.42
2023-05-17T23:35:43.206Z,3.00
2023-05-17T23:38:10.590Z,2.20
2023-05-17T23:40:38.082Z,3.30
2023-05-17T23:43:05.843Z,2.65
2023-05-17T23:45:33.723Z,2.45
2023-05-17T23:48:01.145Z,2.53
2023-05-17T23:50:28.416Z,2.95
2023-05-17T23:52:56.059Z,2.70
2023-05-17T23:55:23.285Z,2.55
2023-05-17T23:57:50.621Z,2.60
